createdAt,value
2017-12-01T00:01:24.528Z,2.40
2017-12-01T00:03:52.206Z,2.40
2017-12-01T00:06:19.930Z,2.30
2017-12-01T00:08:47.671Z,2.30
2017-12-01T00:11:15.387Z,2.30
2017-12-01T00:13:43.064Z,2.40
2017-12-01T00:16:11.530Z,2.30
2017-12-01T00:18:39.206Z,2.30
2017-12-01T00:21:07.712Z,2.20
2017-12-01T00:23:35.377Z,2.20
2017-12-01T00:26:03.055Z,2.30
2017-12-01T00:28:30.783Z,2.20
2017-12-01T00:30:58.443Z,2.20
2017-12-01T00:33:26.143Z,2.30
2017-12-01T00:35:53.831Z,2.10
2017-12-01T00:38:21.599Z,2.10
2017-12-01T00:40:49.276Z,2.10
2017-12-01T00:43:17.749Z,2.10
2017-12-01T00:45:45.455Z,2.10
2017-12-01T00:48:13.173Z,2.10
2017-12-01T00:50:41.619Z,1.90
2017-12-01T00:53:09.339Z,1.80
2017-12-01T00:55:37.010Z,1.80
2017-12-01T00:58:04.746Z,1.80
2017-12-01T01:00:32.434Z,1.80
2017-12-01T01:03:00.139Z,1.80
2017-12-01T01:05:27.832Z,1.70
2017-12-01T01:07:55.527Z,1.60
2017-12-01T01:10:23.240Z,1.70
2017-12-01T01:12:50.933Z,1.60
2017-12-01T01:15:18.668Z,1.60
2017-12-01T01:17:46.336Z,1.50
2017-12-01T01:20:14.105Z,1.50
2017-12-01T01:22:41.845Z,1.50
2017-12-01T01:25:09.562Z,1.60
2017-12-01T01:27:37.243Z,1.60
2017-12-01T01:30:04.947Z,1.60
2017-12-01T01:32:32.613Z,1.50
2017-12-01T01:35:00.330Z,1.30
2017-12-01T01:37:28.754Z,1.30
2017-12-01T01:39:56.466Z,1.30
2017-12-01T01:42:24.950Z,1.40
2017-12-01T01:44:53.466Z,1.50
2017-12-01T01:47:21.178Z,1.50
2017-12-01T01:49:48.883Z,1.50
2017-12-01T01:52:16.735Z,1.50
2017-12-01T01:54:44.443Z,1.40
2017-12-01T01:57:12.193Z,1.10
2017-12-01T01:59:39.978Z,1.20
2017-12-01T02:02:07.699Z,1.30
2017-12-01T02:04:35.407Z,1.20
2017-12-01T02:07:03.172Z,1.10
2017-12-01T02:09:31.649Z,1.00
2017-12-01T02:12:00.171Z,0.90
2017-12-01T02:14:27.870Z,0.90
2017-12-01T02:16:55.636Z,0.80
2017-12-01T02:19:23.350Z,0.80
2017-12-01T02:21:51.114Z,1.00
2017-12-01T02:24:18.831Z,1.00
2017-12-01T02:26:47.308Z,1.00
2017-12-01T02:29:15.070Z,1.00
2017-12-01T02:31:42.851Z,0.80
2017-12-01T02:34:10.615Z,0.90
2017-12-01T02:36:38.334Z,1.00
2017-12-01T02:39:06.101Z,0.90
2017-12-01T02:41:33.816Z,1.00
2017-12-01T02:44:01.614Z,0.80
2017-12-01T02:46:29.334Z,0.70
2017-12-01T02:48:57.096Z,0.70
2017-12-01T02:51:24.819Z,0.80
2017-12-01T02:53:52.579Z,0.80
2017-12-01T02:56:20.488Z,0.60
2017-12-01T02:58:48.243Z,0.40
2017-12-01T03:01:15.974Z,0.40
2017-12-01T03:03:44.507Z,0.50
2017-12-01T03:06:12.222Z,0.50
2017-12-01T03:08:41.018Z,0.30
2017-12-01T03:11:16.115Z,0.30
2017-12-01T03:13:43.930Z,0.40
2017-12-01T03:16:11.659Z,0.50
2017-12-01T03:18:40.144Z,0.60
2017-12-01T03:21:08.676Z,0.80
2017-12-01T03:23:36.419Z,0.80
2017-12-01T03:26:04.240Z,0.70
2017-12-01T03:28:32.734Z,0.50
2017-12-01T03:31:01.424Z,0.50
2017-12-01T03:33:29.185Z,0.50
2017-12-01T03:35:56.958Z,0.50
2017-12-01T03:38:24.667Z,0.50
2017-12-01T03:40:52.434Z,0.70
2017-12-01T03:43:20.155Z,0.60
2017-12-01T03:45:47.918Z,0.50
2017-12-01T03:48:15.639Z,0.40
2017-12-01T03:50:44.166Z,0.20
2017-12-01T03:53:11.899Z,0.20
2017-12-01T03:55:39.667Z,0.20
2017-12-01T03:58:07.383Z,0.30
2017-12-01T04:00:35.115Z,0.50
2017-12-01T04:03:02.883Z,0.30
2017-12-01T04:05:30.603Z,0.30
2017-12-01T04:07:58.391Z,0.40
2017-12-01T04:10:26.110Z,0.40
2017-12-01T04:12:54.683Z,0.30
2017-12-01T04:15:23.170Z,0.30
2017-12-01T04:17:51.699Z,0.30
2017-12-01T04:20:19.431Z,0.30
2017-12-01T04:22:47.199Z,0.40
2017-12-01T04:25:14.943Z,0.50
2017-12-01T04:27:42.707Z,0.40
2017-12-01T04:30:10.435Z,0.40
2017-12-01T04:32:38.208Z,0.50
2017-12-01T04:35:06.690Z,0.50
2017-12-01T04:37:35.231Z,0.50
2017-12-01T04:40:02.955Z,0.50
2017-12-01T04:42:30.718Z,0.50
2017-12-01T04:44:58.446Z,0.50
2017-12-01T04:47:26.175Z,0.40
2017-12-01T04:49:53.936Z,0.40
2017-12-01T04:52:21.663Z,0.30
2017-12-01T04:54:49.431Z,0.20
2017-12-01T04:57:17.155Z,0.20
2017-12-01T04:59:45.687Z,0.30
2017-12-01T05:02:13.398Z,0.30
2017-12-01T05:04:41.926Z,0.20
2017-12-01T05:07:09.647Z,0.20
2017-12-01T05:09:38.180Z,0.10
2017-12-01T05:12:05.903Z,0.20
2017-12-01T05:14:33.668Z,0.10
2017-12-01T05:17:01.387Z,0.10
2017-12-01T05:19:29.167Z,0.20
2017-12-01T05:21:57.655Z,0.00
2017-12-01T05:24:25.435Z,0.00
2017-12-01T05:26:53.250Z,0.10
2017-12-01T05:29:21.227Z,0.30
2017-12-01T05:31:48.991Z,0.40
2017-12-01T05:34:16.712Z,0.40
2017-12-01T05:36:45.239Z,0.20
2017-12-01T05:39:13.719Z,0.10
2017-12-01T05:41:41.523Z,0.10
2017-12-01T05:44:09.243Z,0.40
2017-12-01T05:46:37.779Z,0.40
2017-12-01T05:49:05.556Z,0.40
2017-12-01T05:51:33.323Z,0.40
2017-12-01T05:54:01.047Z,0.50
2017-12-01T05:56:28.822Z,0.70
2017-12-01T05:58:56.542Z,0.60
2017-12-01T06:01:24.319Z,0.60
2017-12-01T06:03:52.043Z,0.40
2017-12-01T06:06:20.589Z,0.40
2017-12-01T06:08:48.310Z,0.40
2017-12-01T06:11:16.041Z,0.50
2017-12-01T06:13:43.807Z,0.50
2017-12-01T06:16:12.294Z,0.80
2017-12-01T06:18:40.823Z,0.80
2017-12-01T06:21:08.543Z,0.80
2017-12-01T06:23:37.071Z,0.70
2017-12-01T06:26:04.795Z,0.60
2017-12-01T06:28:32.558Z,0.60
2017-12-01T06:31:00.286Z,0.70
2017-12-01T06:33:28.059Z,0.80
2017-12-01T06:35:56.540Z,0.80
2017-12-01T06:38:25.079Z,1.00
2017-12-01T06:40:52.802Z,1.00
2017-12-01T06:43:20.574Z,0.90
2017-12-01T06:45:48.307Z,0.80
2017-12-01T06:48:16.039Z,0.90
2017-12-01T06:50:43.814Z,0.90
2017-12-01T06:53:11.523Z,1.00
2017-12-01T06:55:39.278Z,1.20
2017-12-01T06:58:07.008Z,1.20
2017-12-01T07:00:35.539Z,1.30
2017-12-01T07:03:04.058Z,1.20
2017-12-01T07:05:32.587Z,1.30
2017-12-01T07:08:00.287Z,1.30
2017-12-01T07:10:27.997Z,1.20
2017-12-01T07:12:55.654Z,1.20
2017-12-01T07:15:23.310Z,1.10
2017-12-01T07:17:51.039Z,1.00
2017-12-01T07:20:19.467Z,1.00
2017-12-01T07:22:47.170Z,1.00
2017-12-01T07:25:14.835Z,1.00
2017-12-01T07:27:43.302Z,1.00
2017-12-01T07:30:10.960Z,1.00
2017-12-01T07:32:38.659Z,1.10
2017-12-01T07:35:06.315Z,1.00
2017-12-01T07:37:34.046Z,1.00
2017-12-01T07:40:01.747Z,0.70
2017-12-01T07:42:29.492Z,0.80
2017-12-01T07:45:02.659Z,0.80
2017-12-01T07:47:31.179Z,1.00
2017-12-01T07:49:58.879Z,1.00
2017-12-01T07:52:26.603Z,1.10
2017-12-01T07:54:54.359Z,1.20
2017-12-01T07:57:22.047Z,1.30
2017-12-01T07:59:49.796Z,1.30
2017-12-01T08:02:17.498Z,1.20
2017-12-01T08:04:46.007Z,1.00
2017-12-01T08:07:13.698Z,1.00
2017-12-01T08:09:41.434Z,1.10
2017-12-01T08:12:09.134Z,1.20
2017-12-01T08:14:36.876Z,1.20
2017-12-01T08:20:06.855Z,1.70
2017-12-01T08:22:47.242Z,1.50
2017-12-01T08:25:36.818Z,1.50
2017-12-01T08:28:04.511Z,1.40
2017-12-01T08:30:32.252Z,1.30
2017-12-01T08:32:59.955Z,1.40
2017-12-01T08:35:27.659Z,1.50
2017-12-01T08:37:55.536Z,1.50
2017-12-01T08:40:23.303Z,1.40
2017-12-01T08:42:51.000Z,1.40
2017-12-01T08:45:18.743Z,1.40
2017-12-01T08:47:46.440Z,1.50
2017-12-01T08:50:14.947Z,1.50
2017-12-01T08:52:42.624Z,1.50
2017-12-01T08:55:10.315Z,1.60
2017-12-01T08:57:38.036Z,1.70
2017-12-01T09:00:05.737Z,1.80
2017-12-01T09:02:33.480Z,2.00
2017-12-01T09:05:01.926Z,2.00
2017-12-01T09:07:29.678Z,2.00
2017-12-01T09:09:57.334Z,1.90
2017-12-01T09:12:25.055Z,2.30
2017-12-01T09:14:52.726Z,2.60
2017-12-01T09:17:20.484Z,2.70
2017-12-01T09:19:48.210Z,2.70
2017-12-01T09:22:15.939Z,2.70
2017-12-01T09:24:43.662Z,2.80
2017-12-01T09:27:11.411Z,2.70
2017-12-01T09:29:39.092Z,2.70
2017-12-01T09:32:06.758Z,2.80
2017-12-01T09:34:35.238Z,3.20
2017-12-01T09:37:03.699Z,3.30
2017-12-01T09:39:31.431Z,3.20
2017-12-01T09:41:59.179Z,3.30
2017-12-01T09:44:26.978Z,3.30
2017-12-01T09:46:54.740Z,3.40
2017-12-01T09:49:22.475Z,3.20
2017-12-01T09:51:50.172Z,2.90
2017-12-01T09:54:17.923Z,3.00
2017-12-01T09:56:45.643Z,2.90
2017-12-01T09:59:13.351Z,2.90
2017-12-01T10:01:41.059Z,2.40
2017-12-01T10:04:08.787Z,2.50
2017-12-01T10:06:37.247Z,2.70
2017-12-01T10:09:05.012Z,2.70
2017-12-01T10:11:32.670Z,2.70
2017-12-01T10:14:00.379Z,2.70
2017-12-01T10:16:28.040Z,2.80
2017-12-01T10:18:55.727Z,2.80
2017-12-01T10:21:24.239Z,2.70
2017-12-01T10:23:51.899Z,2.70
2017-12-01T10:26:19.610Z,2.80
2017-12-01T10:28:47.278Z,2.90
2017-12-01T10:31:15.007Z,3.00
2017-12-01T10:33:42.707Z,3.10
2017-12-01T10:36:10.469Z,3.20
2017-12-01T10:38:38.182Z,3.20
2017-12-01T10:41:06.675Z,3.30
2017-12-01T10:43:34.427Z,3.20
2017-12-01T10:46:02.928Z,3.30
2017-12-01T10:48:30.607Z,3.20
2017-12-01T10:50:58.287Z,3.30
2017-12-01T10:53:26.010Z,3.30
2017-12-01T10:55:53.687Z,3.00
2017-12-01T10:58:21.411Z,2.90
2017-12-01T11:00:49.096Z,2.70
2017-12-01T11:03:16.831Z,2.70
2017-12-01T11:05:45.246Z,3.10
2017-12-01T11:08:12.959Z,3.10
2017-12-01T11:10:41.415Z,3.10
2017-12-01T11:13:09.076Z,3.10
2017-12-01T11:15:36.783Z,3.20
2017-12-01T11:18:04.435Z,3.10
2017-12-01T11:20:32.092Z,3.30
2017-12-01T11:22:59.803Z,3.40
2017-12-01T11:25:27.455Z,3.40
2017-12-01T11:27:55.147Z,3.50
2017-12-01T11:30:23.581Z,3.50
2017-12-01T11:32:51.318Z,3.60
2017-12-01T11:35:18.979Z,3.50
2017-12-01T11:37:46.674Z,3.60
2017-12-01T11:40:14.323Z,3.40
2017-12-01T11:42:42.026Z,3.50
2017-12-01T11:45:10.479Z,3.80
2017-12-01T11:47:38.179Z,3.80
2017-12-01T11:50:05.834Z,3.70
2017-12-01T11:52:33.553Z,3.90
2017-12-01T11:55:01.406Z,3.70
2017-12-01T11:57:29.166Z,3.70
2017-12-01T11:59:56.883Z,3.50
2017-12-01T12:02:25.388Z,3.50
2017-12-01T12:04:53.132Z,3.50
2017-12-01T12:07:20.796Z,3.60
2017-12-01T12:09:48.549Z,3.70
2017-12-01T12:12:16.276Z,3.80
2017-12-01T12:14:44.072Z,3.90
2017-12-01T12:17:11.803Z,3.90
2017-12-01T12:19:39.567Z,4.00
2017-12-01T12:22:07.356Z,4.10
2017-12-01T12:24:35.134Z,4.00
2017-12-01T12:27:02.854Z,4.20
2017-12-01T12:29:31.385Z,4.30
2017-12-01T12:31:59.098Z,4.30
2017-12-01T12:34:27.580Z,4.70
2017-12-01T12:36:56.082Z,4.70
2017-12-01T12:39:23.759Z,4.70
2017-12-01T12:41:51.530Z,4.70
2017-12-01T12:44:19.303Z,4.50
2017-12-01T12:46:47.105Z,4.40
2017-12-01T12:49:15.602Z,4.30
2017-12-01T12:51:43.397Z,4.20
2017-12-01T12:54:11.154Z,4.00
2017-12-01T12:56:38.950Z,3.80
2017-12-01T12:59:06.707Z,3.60
2017-12-01T13:01:34.514Z,3.70
2017-12-01T13:04:02.277Z,3.80
2017-12-01T13:06:30.076Z,3.60
2017-12-01T13:08:57.821Z,3.60
2017-12-01T13:11:25.616Z,3.60
2017-12-01T13:13:53.344Z,3.50
2017-12-01T13:16:21.102Z,3.50
2017-12-01T13:18:48.910Z,3.50
2017-12-01T13:21:16.636Z,3.50
2017-12-01T13:23:44.429Z,3.40
2017-12-01T13:26:12.151Z,3.30
2017-12-01T13:28:39.914Z,3.40
2017-12-01T13:31:07.627Z,3.40
2017-12-01T13:33:36.161Z,3.30
2017-12-01T13:36:03.830Z,3.20
2017-12-01T13:38:31.636Z,3.10
2017-12-01T13:41:00.069Z,3.30
2017-12-01T13:43:27.843Z,3.30
2017-12-01T13:45:55.531Z,3.30
2017-12-01T13:48:24.071Z,3.30
2017-12-01T13:50:51.836Z,3.30
2017-12-01T13:53:20.356Z,3.30
2017-12-01T13:55:48.904Z,3.20
2017-12-01T13:58:16.592Z,3.20
2017-12-01T14:00:45.083Z,3.20
2017-12-01T14:03:13.504Z,3.20
2017-12-01T14:05:41.259Z,3.20
2017-12-01T14:08:08.947Z,3.20
2017-12-01T14:10:36.656Z,3.20
2017-12-01T14:13:04.315Z,3.20
2017-12-01T14:15:32.020Z,3.20
2017-12-01T14:18:00.447Z,3.10
2017-12-01T14:20:29.099Z,3.10
2017-12-01T14:22:56.747Z,2.90
2017-12-01T14:25:24.443Z,2.80
2017-12-01T14:27:52.855Z,2.80
2017-12-01T14:30:20.503Z,2.80
2017-12-01T14:32:48.207Z,2.80
2017-12-01T14:35:15.886Z,2.90
2017-12-01T14:37:44.366Z,2.80
2017-12-01T14:40:12.784Z,2.90
2017-12-01T14:42:40.471Z,2.90
2017-12-01T14:45:08.122Z,2.90
2017-12-01T14:47:35.836Z,2.70
2017-12-01T14:50:03.528Z,2.60
2017-12-01T14:52:31.226Z,2.70
2017-12-01T14:55:00.248Z,2.70
2017-12-01T14:57:27.947Z,2.80
2017-12-01T14:59:55.599Z,2.80
2017-12-01T15:02:23.247Z,2.70
2017-12-01T15:04:50.947Z,2.70
2017-12-01T15:07:18.611Z,2.70
2017-12-01T15:09:46.303Z,2.50
2017-12-01T15:12:14.715Z,2.70
2017-12-01T15:14:42.402Z,2.70
2017-12-01T15:17:10.054Z,2.60
2017-12-01T15:19:37.756Z,2.50
2017-12-01T15:22:06.215Z,2.60
2017-12-01T15:24:33.918Z,2.50
2017-12-01T15:27:01.559Z,2.40
2017-12-01T15:29:29.262Z,2.30
2017-12-01T15:31:56.909Z,2.30
2017-12-01T15:34:24.649Z,2.40
2017-12-01T15:36:52.297Z,2.50
2017-12-01T15:39:20.019Z,2.80
2017-12-01T15:41:47.751Z,2.80
2017-12-01T15:44:15.493Z,2.80
2017-12-01T15:46:43.176Z,2.80
2017-12-01T15:49:10.841Z,2.70
2017-12-01T15:51:38.560Z,2.70
2017-12-01T15:54:06.235Z,2.70
2017-12-01T15:56:33.996Z,2.50
2017-12-01T15:59:01.667Z,2.40
2017-12-01T16:01:29.444Z,2.20
2017-12-01T16:03:57.164Z,2.20
2017-12-01T16:06:24.907Z,2.20
2017-12-01T16:08:53.379Z,1.90
2017-12-01T16:11:21.136Z,1.90
2017-12-01T16:13:48.834Z,1.90
2017-12-01T16:16:16.599Z,2.10
2017-12-01T16:18:44.342Z,2.20
2017-12-01T16:21:12.899Z,2.20
2017-12-01T16:23:40.658Z,2.10
2017-12-01T16:26:08.451Z,2.10
2017-12-01T16:28:36.932Z,2.10
2017-12-01T16:31:04.676Z,2.10
2017-12-01T16:33:33.137Z,2.00
2017-12-01T16:36:00.856Z,2.00
2017-12-01T16:38:28.632Z,2.30
2017-12-01T16:40:56.342Z,2.30
2017-12-01T16:43:24.836Z,2.40
2017-12-01T16:45:52.561Z,2.40
2017-12-01T16:48:20.276Z,2.40
2017-12-01T16:50:47.996Z,2.20
2017-12-01T16:53:16.519Z,2.30
2017-12-01T16:55:44.244Z,2.30
2017-12-01T16:58:12.768Z,2.40
2017-12-01T17:00:40.479Z,2.40
2017-12-01T17:03:09.017Z,2.20
2017-12-01T17:05:36.752Z,2.20
2017-12-01T17:08:04.511Z,2.30
2017-12-01T17:10:32.226Z,2.50
2017-12-01T17:12:59.975Z,2.60
2017-12-01T17:15:27.688Z,2.60
2017-12-01T17:17:55.462Z,2.40
2017-12-01T17:20:23.185Z,2.30
2017-12-01T17:22:51.712Z,2.30
2017-12-01T17:25:19.435Z,2.20
2017-12-01T17:27:48.432Z,2.20
2017-12-01T17:30:16.735Z,2.00
2017-12-01T17:32:44.628Z,2.00
2017-12-01T17:35:12.415Z,1.90
2017-12-01T17:37:40.904Z,2.00
2017-12-01T17:40:09.676Z,1.70
2017-12-01T17:42:37.687Z,1.70
2017-12-01T17:45:05.829Z,1.60
2017-12-01T17:47:34.307Z,1.40
2017-12-01T17:50:02.839Z,1.60
2017-12-01T17:52:30.575Z,1.50
2017-12-01T17:54:58.330Z,1.50
2017-12-01T17:57:26.048Z,1.70
2017-12-01T17:59:53.769Z,1.60
2017-12-01T18:02:21.738Z,1.40
2017-12-01T18:04:49.483Z,1.30
2017-12-01T18:07:17.505Z,1.20
2017-12-01T18:09:46.002Z,1.10
2017-12-01T18:12:14.523Z,1.00
2017-12-01T18:14:42.243Z,0.90
2017-12-01T18:17:10.747Z,1.20
2017-12-01T18:19:38.516Z,1.20
2017-12-01T18:22:06.267Z,1.20
2017-12-01T18:24:34.162Z,1.20
2017-12-01T18:27:01.945Z,1.20
2017-12-01T18:29:29.718Z,1.20
2017-12-01T18:31:57.482Z,1.20
2017-12-01T18:34:26.018Z,1.20
2017-12-01T18:36:53.771Z,1.20
2017-12-01T18:39:21.498Z,1.20
2017-12-01T18:41:50.071Z,0.80
2017-12-01T18:44:18.578Z,0.80
2017-12-01T18:46:46.347Z,0.80
2017-12-01T18:49:14.113Z,0.90
2017-12-01T18:51:41.825Z,0.70
2017-12-01T18:54:09.627Z,0.60
2017-12-01T18:56:37.390Z,0.70
2017-12-01T18:59:05.169Z,0.80
2017-12-01T19:01:32.922Z,0.90
2017-12-01T19:04:00.728Z,1.00
2017-12-01T19:06:28.490Z,1.00
2017-12-01T19:08:56.262Z,0.90
2017-12-01T19:11:24.809Z,0.70
2017-12-01T19:13:52.611Z,0.80
2017-12-01T19:16:21.100Z,0.70
2017-12-01T19:18:49.632Z,0.70
2017-12-01T19:21:17.399Z,0.60
2017-12-01T19:23:45.176Z,0.70
2017-12-01T19:28:45.070Z,0.80
2017-12-01T19:31:12.782Z,0.90
2017-12-01T19:33:41.307Z,1.00
2017-12-01T19:36:09.040Z,1.10
2017-12-01T19:38:36.909Z,1.00
2017-12-01T19:41:05.827Z,1.00
2017-12-01T19:43:33.858Z,1.20
2017-12-01T19:46:01.835Z,1.40
2017-12-01T19:48:29.722Z,1.20
2017-12-01T19:50:57.512Z,1.30
2017-12-01T19:53:25.239Z,1.20
2017-12-01T19:55:53.018Z,1.10
2017-12-01T19:58:20.747Z,1.00
2017-12-01T20:00:48.913Z,1.10
2017-12-01T20:03:17.123Z,1.20
2017-12-01T20:05:44.851Z,1.20
2017-12-01T20:08:12.567Z,1.40
2017-12-01T20:10:40.334Z,1.20
2017-12-01T20:13:08.316Z,1.20
2017-12-01T20:15:36.132Z,1.30
2017-12-01T20:18:03.911Z,1.60
2017-12-01T20:20:31.646Z,1.60
2017-12-01T20:22:59.393Z,1.40
2017-12-01T20:25:27.119Z,1.30
2017-12-01T20:27:55.703Z,1.20
2017-12-01T20:30:24.194Z,1.20
2017-12-01T20:32:52.076Z,1.20
2017-12-01T20:35:19.803Z,1.20
2017-12-01T20:37:48.341Z,1.40
2017-12-01T20:40:16.056Z,1.30
2017-12-01T20:42:44.604Z,1.30
2017-12-01T20:45:12.296Z,1.30
2017-12-01T20:47:40.791Z,1.40
2017-12-01T20:50:08.555Z,1.40
2017-12-01T20:52:36.288Z,1.40
2017-12-01T20:55:04.821Z,1.40
2017-12-01T20:57:32.584Z,1.40
2017-12-01T21:00:01.078Z,1.50
2017-12-01T21:02:28.802Z,1.30
2017-12-01T21:04:56.575Z,1.20
2017-12-01T21:07:24.924Z,1.40
2017-12-01T21:09:52.711Z,1.30
2017-12-01T21:12:20.424Z,1.30
2017-12-01T21:14:48.958Z,1.20
2017-12-01T21:17:16.666Z,1.20
2017-12-01T21:19:45.202Z,1.50
2017-12-01T21:22:12.917Z,1.50
2017-12-01T21:24:41.457Z,1.60
2017-12-01T21:27:09.183Z,1.60
2017-12-01T21:29:36.911Z,1.60
2017-12-01T21:32:05.436Z,1.30
2017-12-01T21:34:33.146Z,1.30
2017-12-01T21:37:01.662Z,1.40
2017-12-01T21:39:29.366Z,1.40
2017-12-01T21:41:57.126Z,1.30
2017-12-01T21:44:24.822Z,1.30
2017-12-01T21:46:52.536Z,1.20
2017-12-01T21:49:20.207Z,1.10
2017-12-01T21:51:47.968Z,1.10
2017-12-01T21:54:15.627Z,1.00
2017-12-01T21:56:44.313Z,1.00
2017-12-01T21:59:12.031Z,1.00
2017-12-01T22:01:39.688Z,1.00
2017-12-01T22:04:07.391Z,1.00
2017-12-01T22:06:35.097Z,0.90
2017-12-01T22:09:02.875Z,0.80
2017-12-01T22:11:30.534Z,0.70
2017-12-01T22:13:58.278Z,0.50
2017-12-01T22:16:26.000Z,0.50
2017-12-01T22:18:53.776Z,0.50
2017-12-01T22:21:22.276Z,0.50
2017-12-01T22:23:49.994Z,0.50
2017-12-01T22:26:17.735Z,0.50
2017-12-01T22:28:45.498Z,0.60
2017-12-01T22:31:13.265Z,0.40
2017-12-01T22:33:40.990Z,0.30
2017-12-01T22:36:08.687Z,0.00
2017-12-01T22:38:36.422Z,-0.30
2017-12-01T22:41:04.094Z,-0.40
2017-12-01T22:43:31.815Z,-0.50
2017-12-01T22:46:00.317Z,-0.40
2017-12-01T22:48:28.026Z,-0.40
2017-12-01T22:50:55.746Z,-0.10
2017-12-01T22:53:23.411Z,-0.10
2017-12-01T22:55:51.123Z,-0.30
2017-12-01T22:58:19.575Z,0.10
2017-12-01T23:00:47.328Z,0.00
2017-12-01T23:03:15.022Z,0.00
2017-12-01T23:05:43.535Z,0.10
2017-12-01T23:08:11.213Z,0.10
2017-12-01T23:10:38.932Z,0.40
2017-12-01T23:13:07.391Z,0.10
2017-12-01T23:15:35.114Z,0.10
2017-12-01T23:18:02.804Z,0.10
2017-12-01T23:20:30.506Z,0.20
2017-12-01T23:22:58.172Z,0.10
2017-12-01T23:25:25.891Z,0.20
2017-12-01T23:27:53.594Z,0.10
2017-12-01T23:30:21.254Z,0.10
2017-12-01T23:32:48.963Z,0.00
2017-12-01T23:35:17.403Z,-0.10
2017-12-01T23:37:45.125Z,-0.10
2017-12-01T23:40:13.546Z,0.00
2017-12-01T23:42:41.263Z,-0.10
2017-12-01T23:45:09.714Z,-0.10
2017-12-01T23:47:37.443Z,-0.10
2017-12-01T23:50:05.132Z,-0.10
2017-12-01T23:52:32.838Z,0.00
2017-12-01T23:55:00.544Z,0.00
2017-12-01T23:57:28.310Z,0.00
2017-12-01T23:59:55.991Z,0.00
